sensor_id;sensor_type;location;lat;lon;timestamp;temperature;humidity
68098;DHT22;54886;47.036;15.466;2023-01-08T00:00:43;1.22;81.49
68098;DHT22;54886;47.036;15.466;2023-01-08T00:03:09;1.24;81.80
68098;DHT22;54886;47.036;15.466;2023-01-08T00:05:35;1.23;81.93
68098;DHT22;54886;47.036;15.466;2023-01-08T00:11:22;1.22;81.69
68098;DHT22;54886;47.036;15.466;2023-01-08T00:13:48;1.17;81.85
68098;DHT22;54886;47.036;15.466;2023-01-08T00:16:15;1.16;82.05
68098;DHT22;54886;47.036;15.466;2023-01-08T00:18:42;1.12;82.12
68098;DHT22;54886;47.036;15.466;2023-01-08T00:21:08;1.10;82.11
68098;DHT22;54886;47.036;15.466;2023-01-08T00:23:35;1.00;81.75
68098;DHT22;54886;47.036;15.466;2023-01-08T00:26:05;1.02;81.68
68098;DHT22;54886;47.036;15.466;2023-01-08T00:28:32;1.00;82.06
68098;DHT22;54886;47.036;15.466;2023-01-08T00:30:58;1.00;81.88
68098;DHT22;54886;47.036;15.466;2023-01-08T00:36:45;0.91;82.49
68098;DHT22;54886;47.036;15.466;2023-01-08T00:39:10;0.95;82.95
68098;DHT22;54886;47.036;15.466;2023-01-08T00:41:36;0.89;82.97
68098;DHT22;54886;47.036;15.466;2023-01-08T00:44:02;0.89;83.14
68098;DHT22;54886;47.036;15.466;2023-01-08T00:46:27;0.92;83.55
68098;DHT22;54886;47.036;15.466;2023-01-08T00:48:53;0.88;83.68
68098;DHT22;54886;47.036;15.466;2023-01-08T00:51:18;0.82;84.35
68098;DHT22;54886;47.036;15.466;2023-01-08T00:53:44;0.83;84.31
68098;DHT22;54886;47.036;15.466;2023-01-08T00:56:10;0.83;84.18
68098;DHT22;54886;47.036;15.466;2023-01-08T01:01:57;0.79;84.14
68098;DHT22;54886;47.036;15.466;2023-01-08T01:07:45;0.71;84.26
68098;DHT22;54886;47.036;15.466;2023-01-08T01:10:12;0.73;83.98
68098;DHT22;54886;47.036;15.466;2023-01-08T01:16:01;0.71;83.73
68098;DHT22;54886;47.036;15.466;2023-01-08T01:21:49;0.73;84.02
68098;DHT22;54886;47.036;15.466;2023-01-08T01:27:36;0.72;83.94
68098;DHT22;54886;47.036;15.466;2023-01-08T01:30:03;0.72;83.83
68098;DHT22;54886;47.036;15.466;2023-01-08T01:32:30;0.72;83.94
68098;DHT22;54886;47.036;15.466;2023-01-08T01:34:55;0.66;83.98
68098;DHT22;54886;47.036;15.466;2023-01-08T01:37:21;0.60;84.01
68098;DHT22;54886;47.036;15.466;2023-01-08T01:39:46;0.62;84.08
68098;DHT22;54886;47.036;15.466;2023-01-08T01:42:13;0.64;84.19
68098;DHT22;54886;47.036;15.466;2023-01-08T01:44:58;0.64;84.11
68098;DHT22;54886;47.036;15.466;2023-01-08T01:47:28;0.58;83.91
68098;DHT22;54886;47.036;15.466;2023-01-08T01:50:02;0.57;83.58
68098;DHT22;54886;47.036;15.466;2023-01-08T01:52:32;0.57;83.57
68098;DHT22;54886;47.036;15.466;2023-01-08T01:58:27;0.53;82.88
68098;DHT22;54886;47.036;15.466;2023-01-08T02:00:55;0.54;83.12
68098;DHT22;54886;47.036;15.466;2023-01-08T02:07:28;0.48;83.07
68098;DHT22;54886;47.036;15.466;2023-01-08T02:13:12;0.47;83.02
68098;DHT22;54886;47.036;15.466;2023-01-08T02:19:05;0.37;82.45
68098;DHT22;54886;47.036;15.466;2023-01-08T02:21:49;0.40;82.85
68098;DHT22;54886;47.036;15.466;2023-01-08T02:27:42;0.36;82.62
68098;DHT22;54886;47.036;15.466;2023-01-08T02:33:36;0.31;82.58
68098;DHT22;54886;47.036;15.466;2023-01-08T02:36:23;0.31;82.56
68098;DHT22;54886;47.036;15.466;2023-01-08T02:48:53;0.07;82.21
68098;DHT22;54886;47.036;15.466;2023-01-08T02:54:43;0.10;82.69
68098;DHT22;54886;47.036;15.466;2023-01-08T03:00:14;0.07;82.10
68098;DHT22;54886;47.036;15.466;2023-01-08T03:02:41;0.00;82.04
68098;DHT22;54886;47.036;15.466;2023-01-08T03:08:32;0.03;81.87
68098;DHT22;54886;47.036;15.466;2023-01-08T03:14:27;-0.04;81.92
68098;DHT22;54886;47.036;15.466;2023-01-08T03:17:04;-0.07;81.90
68098;DHT22;54886;47.036;15.466;2023-01-08T03:19:48;-0.11;82.15
68098;DHT22;54886;47.036;15.466;2023-01-08T03:22:16;-0.04;82.45
68098;DHT22;54886;47.036;15.466;2023-01-08T03:24:45;-0.04;82.34
68098;DHT22;54886;47.036;15.466;2023-01-08T03:27:16;-0.05;82.39
68098;DHT22;54886;47.036;15.466;2023-01-08T03:29:45;-0.08;82.47
68098;DHT22;54886;47.036;15.466;2023-01-08T03:32:14;-0.07;82.14
68098;DHT22;54886;47.036;15.466;2023-01-08T03:34:42;-0.12;81.78
68098;DHT22;54886;47.036;15.466;2023-01-08T03:37:10;-0.18;82.04
68098;DHT22;54886;47.036;15.466;2023-01-08T03:39:42;-0.12;82.50
68098;DHT22;54886;47.036;15.466;2023-01-08T03:42:12;-0.12;82.41
68098;DHT22;54886;47.036;15.466;2023-01-08T03:44:38;-0.15;82.18
68098;DHT22;54886;47.036;15.466;2023-01-08T03:47:05;-0.14;82.34
68098;DHT22;54886;47.036;15.466;2023-01-08T03:49:32;-0.15;82.40
68098;DHT22;54886;47.036;15.466;2023-01-08T03:51:59;-0.17;82.20
68098;DHT22;54886;47.036;15.466;2023-01-08T03:54:30;-0.18;82.40
68098;DHT22;54886;47.036;15.466;2023-01-08T04:00:17;-0.18;82.30
68098;DHT22;54886;47.036;15.466;2023-01-08T04:02:43;-0.21;82.56
68098;DHT22;54886;47.036;15.466;2023-01-08T04:05:09;-0.23;82.77
68098;DHT22;54886;47.036;15.466;2023-01-08T04:07:35;-0.25;82.87
68098;DHT22;54886;47.036;15.466;2023-01-08T04:10:01;-0.23;82.73
68098;DHT22;54886;47.036;15.466;2023-01-08T04:15:49;-0.28;82.55
68098;DHT22;54886;47.036;15.466;2023-01-08T04:18:16;-0.32;82.41
68098;DHT22;54886;47.036;15.466;2023-01-08T04:20:46;-0.30;82.22
68098;DHT22;54886;47.036;15.466;2023-01-08T04:23:12;-0.38;82.18
68098;DHT22;54886;47.036;15.466;2023-01-08T04:25:38;-0.39;82.17
68098;DHT22;54886;47.036;15.466;2023-01-08T04:28:04;-0.40;82.27
68098;DHT22;54886;47.036;15.466;2023-01-08T04:30:30;-0.45;82.51
68098;DHT22;54886;47.036;15.466;2023-01-08T04:32:55;-0.49;82.40
68098;DHT22;54886;47.036;15.466;2023-01-08T04:35:21;-0.52;82.17
68098;DHT22;54886;47.036;15.466;2023-01-08T04:41:09;-0.57;82.36
68098;DHT22;54886;47.036;15.466;2023-01-08T04:43:35;-0.55;82.34
68098;DHT22;54886;47.036;15.466;2023-01-08T04:46:02;-0.57;82.16
68098;DHT22;54886;47.036;15.466;2023-01-08T04:48:29;-0.62;81.96
68098;DHT22;54886;47.036;15.466;2023-01-08T04:51:00;-0.63;82.23
68098;DHT22;54886;47.036;15.466;2023-01-08T04:53:27;-0.60;82.23
68098;DHT22;54886;47.036;15.466;2023-01-08T04:55:53;-0.66;82.23
68098;DHT22;54886;47.036;15.466;2023-01-08T04:58:19;-0.72;81.98
68098;DHT22;54886;47.036;15.466;2023-01-08T05:00:45;-0.73;82.43
68098;DHT22;54886;47.036;15.466;2023-01-08T05:06:32;-0.70;82.59
68098;DHT22;54886;47.036;15.466;2023-01-08T05:08:58;-0.70;82.69
68098;DHT22;54886;47.036;15.466;2023-01-08T05:11:24;-0.73;82.76
68098;DHT22;54886;47.036;15.466;2023-01-08T05:13:51;-0.69;82.81
68098;DHT22;54886;47.036;15.466;2023-01-08T05:16:17;-0.70;82.58
68098;DHT22;54886;47.036;15.466;2023-01-08T05:22:04;-0.74;82.48
68098;DHT22;54886;47.036;15.466;2023-01-08T05:24:30;-0.74;82.60
68098;DHT22;54886;47.036;15.466;2023-01-08T05:26:56;-0.73;82.58
68098;DHT22;54886;47.036;15.466;2023-01-08T05:29:22;-0.76;82.77
68098;DHT22;54886;47.036;15.466;2023-01-08T05:31:47;-0.80;82.69
68098;DHT22;54886;47.036;15.466;2023-01-08T05:37:36;-0.83;82.77
68098;DHT22;54886;47.036;15.466;2023-01-08T05:40:02;-0.83;82.64
68098;DHT22;54886;47.036;15.466;2023-01-08T05:42:27;-0.88;82.50
68098;DHT22;54886;47.036;15.466;2023-01-08T05:44:53;-0.87;82.47
68098;DHT22;54886;47.036;15.466;2023-01-08T05:47:19;-0.92;82.45
68098;DHT22;54886;47.036;15.466;2023-01-08T05:49:44;-0.97;82.34
68098;DHT22;54886;47.036;15.466;2023-01-08T05:55:32;-0.97;82.48
68098;DHT22;54886;47.036;15.466;2023-01-08T06:01:19;-1.04;82.32
68098;DHT22;54886;47.036;15.466;2023-01-08T06:07:06;-1.02;82.25
68098;DHT22;54886;47.036;15.466;2023-01-08T06:12:54;-1.12;81.78
68098;DHT22;54886;47.036;15.466;2023-01-08T06:15:20;-1.11;81.79
68098;DHT22;54886;47.036;15.466;2023-01-08T06:21:08;-1.13;82.11
68098;DHT22;54886;47.036;15.466;2023-01-08T06:26:55;-1.25;81.66
68098;DHT22;54886;47.036;15.466;2023-01-08T06:32:43;-1.27;81.98
68098;DHT22;54886;47.036;15.466;2023-01-08T06:38:31;-1.25;82.35
68098;DHT22;54886;47.036;15.466;2023-01-08T06:40:57;-1.24;82.25
68098;DHT22;54886;47.036;15.466;2023-01-08T06:43:23;-1.21;82.50
68098;DHT22;54886;47.036;15.466;2023-01-08T06:45:55;-1.22;82.40
68098;DHT22;54886;47.036;15.466;2023-01-08T06:51:44;-1.22;82.45
68098;DHT22;54886;47.036;15.466;2023-01-08T06:57:31;-1.22;82.61
68098;DHT22;54886;47.036;15.466;2023-01-08T07:03:19;-1.31;82.46
68098;DHT22;54886;47.036;15.466;2023-01-08T07:09:06;-1.34;82.59
68098;DHT22;54886;47.036;15.466;2023-01-08T07:11:32;-1.35;82.75
68098;DHT22;54886;47.036;15.466;2023-01-08T07:13:58;-1.31;82.75
68098;DHT22;54886;47.036;15.466;2023-01-08T07:19:45;-1.29;82.60
68098;DHT22;54886;47.036;15.466;2023-01-08T07:22:10;-1.28;82.81
68098;DHT22;54886;47.036;15.466;2023-01-08T07:24:36;-1.28;83.09
68098;DHT22;54886;47.036;15.466;2023-01-08T07:27:02;-1.28;83.28
68098;DHT22;54886;47.036;15.466;2023-01-08T07:29:27;-1.24;83.75
68098;DHT22;54886;47.036;15.466;2023-01-08T07:31:53;-1.21;83.66
68098;DHT22;54886;47.036;15.466;2023-01-08T07:34:19;-1.19;83.40
68098;DHT22;54886;47.036;15.466;2023-01-08T07:36:44;-1.15;83.14
68098;DHT22;54886;47.036;15.466;2023-01-08T07:39:10;-1.15;83.74
68098;DHT22;54886;47.036;15.466;2023-01-08T07:44:57;-1.12;83.35
68098;DHT22;54886;47.036;15.466;2023-01-08T07:47:22;-1.13;83.44
68098;DHT22;54886;47.036;15.466;2023-01-08T07:49:48;-1.08;83.40
68098;DHT22;54886;47.036;15.466;2023-01-08T07:52:14;-1.07;83.64
68098;DHT22;54886;47.036;15.466;2023-01-08T07:54:39;-1.07;84.89
68098;DHT22;54886;47.036;15.466;2023-01-08T07:57:05;-1.04;85.35
68098;DHT22;54886;47.036;15.466;2023-01-08T08:02:53;-0.97;84.68
68098;DHT22;54886;47.036;15.466;2023-01-08T08:05:18;-0.94;84.76
68098;DHT22;54886;47.036;15.466;2023-01-08T08:07:44;-0.94;84.36
68098;DHT22;54886;47.036;15.466;2023-01-08T08:10:10;-0.88;84.47
68098;DHT22;54886;47.036;15.466;2023-01-08T08:12:38;-0.87;84.55
68098;DHT22;54886;47.036;15.466;2023-01-08T08:15:04;-0.84;84.68
68098;DHT22;54886;47.036;15.466;2023-01-08T08:17:30;-0.81;84.85
68098;DHT22;54886;47.036;15.466;2023-01-08T08:19:55;-0.79;85.07
68098;DHT22;54886;47.036;15.466;2023-01-08T08:25:43;-0.72;84.86
68098;DHT22;54886;47.036;15.466;2023-01-08T08:28:10;-0.72;84.44
68098;DHT22;54886;47.036;15.466;2023-01-08T08:30:36;-0.70;84.41
68098;DHT22;54886;47.036;15.466;2023-01-08T08:33:04;-0.69;85.06
68098;DHT22;54886;47.036;15.466;2023-01-08T08:35:31;-0.64;85.30
68098;DHT22;54886;47.036;15.466;2023-01-08T08:37:57;-0.62;85.87
68098;DHT22;54886;47.036;15.466;2023-01-08T08:40:23;-0.59;85.29
68098;DHT22;54886;47.036;15.466;2023-01-08T08:46:11;-0.55;85.43
68098;DHT22;54886;47.036;15.466;2023-01-08T08:48:36;-0.55;85.33
68098;DHT22;54886;47.036;15.466;2023-01-08T08:51:03;-0.50;84.79
68098;DHT22;54886;47.036;15.466;2023-01-08T08:53:28;-0.48;84.92
68098;DHT22;54886;47.036;15.466;2023-01-08T08:55:57;-0.42;85.16
68098;DHT22;54886;47.036;15.466;2023-01-08T09:01:44;-0.38;86.19
68098;DHT22;54886;47.036;15.466;2023-01-08T09:04:10;-0.32;86.36
68098;DHT22;54886;47.036;15.466;2023-01-08T09:06:35;-0.28;86.17
68098;DHT22;54886;47.036;15.466;2023-01-08T09:09:01;-0.23;88.11
68098;DHT22;54886;47.036;15.466;2023-01-08T09:11:27;-0.17;88.09
68098;DHT22;54886;47.036;15.466;2023-01-08T09:13:53;-0.17;87.08
68098;DHT22;54886;47.036;15.466;2023-01-08T09:16:19;-0.12;85.87
68098;DHT22;54886;47.036;15.466;2023-01-08T09:22:06;0.00;86.24
68098;DHT22;54886;47.036;15.466;2023-01-08T09:24:32;0.02;87.27
68098;DHT22;54886;47.036;15.466;2023-01-08T09:26:58;0.07;87.02
68098;DHT22;54886;47.036;15.466;2023-01-08T09:29:24;0.13;85.95
68098;DHT22;54886;47.036;15.466;2023-01-08T09:31:50;0.16;86.86
68098;DHT22;54886;47.036;15.466;2023-01-08T09:34:15;0.23;87.27
68098;DHT22;54886;47.036;15.466;2023-01-08T09:36:41;0.26;87.69
68098;DHT22;54886;47.036;15.466;2023-01-08T09:39:07;0.33;88.49
68098;DHT22;54886;47.036;15.466;2023-01-08T09:41:37;0.41;88.92
68098;DHT22;54886;47.036;15.466;2023-01-08T09:47:32;0.55;89.92
68098;DHT22;54886;47.036;15.466;2023-01-08T09:50:05;0.55;89.58
68098;DHT22;54886;47.036;15.466;2023-01-08T09:52:32;0.61;89.23
68098;DHT22;54886;47.036;15.466;2023-01-08T09:54:59;0.65;88.88
68098;DHT22;54886;47.036;15.466;2023-01-08T09:57:25;0.65;88.36
68098;DHT22;54886;47.036;15.466;2023-01-08T09:59:51;0.69;89.14
68098;DHT22;54886;47.036;15.466;2023-01-08T10:02:19;0.71;89.16
68098;DHT22;54886;47.036;15.466;2023-01-08T10:08:12;0.76;88.43
68098;DHT22;54886;47.036;15.466;2023-01-08T10:10:40;0.79;88.34
68098;DHT22;54886;47.036;15.466;2023-01-08T10:16:34;0.92;88.90
68098;DHT22;54886;47.036;15.466;2023-01-08T10:22:27;1.02;88.34
68098;DHT22;54886;47.036;15.466;2023-01-08T10:28:19;1.15;88.25
68098;DHT22;54886;47.036;15.466;2023-01-08T10:30:45;1.15;88.32
68098;DHT22;54886;47.036;15.466;2023-01-08T10:33:36;1.19;88.37
68098;DHT22;54886;47.036;15.466;2023-01-08T10:36:06;1.23;88.26
68098;DHT22;54886;47.036;15.466;2023-01-08T10:38:35;1.26;88.44
68098;DHT22;54886;47.036;15.466;2023-01-08T10:41:38;1.37;88.92
68098;DHT22;54886;47.036;15.466;2023-01-08T10:47:28;1.50;88.39
68098;DHT22;54886;47.036;15.466;2023-01-08T10:53:24;1.65;88.54
68098;DHT22;54886;47.036;15.466;2023-01-08T10:55:57;1.69;88.27
68098;DHT22;54886;47.036;15.466;2023-01-08T11:01:47;1.96;88.45
68098;DHT22;54886;47.036;15.466;2023-01-08T11:07:35;2.07;88.13
68098;DHT22;54886;47.036;15.466;2023-01-08T11:13:23;2.11;87.60
68098;DHT22;54886;47.036;15.466;2023-01-08T11:19:30;2.30;87.23
68098;DHT22;54886;47.036;15.466;2023-01-08T11:22:01;2.30;86.77
68098;DHT22;54886;47.036;15.466;2023-01-08T11:24:35;2.33;87.32
68098;DHT22;54886;47.036;15.466;2023-01-08T11:32:48;2.38;86.70
68098;DHT22;54886;47.036;15.466;2023-01-08T11:37:58;2.48;87.34
68098;DHT22;54886;47.036;15.466;2023-01-08T11:40:32;2.55;87.24
68098;DHT22;54886;47.036;15.466;2023-01-08T11:46:02;2.72;86.79
68098;DHT22;54886;47.036;15.466;2023-01-08T12:07:24;3.38;86.19
68098;DHT22;54886;47.036;15.466;2023-01-08T12:20:31;3.61;85.13
68098;DHT22;54886;47.036;15.466;2023-01-08T12:23:10;3.69;85.21
68098;DHT22;54886;47.036;15.466;2023-01-08T12:26:06;3.74;85.46
68098;DHT22;54886;47.036;15.466;2023-01-08T12:31:18;3.81;85.15
68098;DHT22;54886;47.036;15.466;2023-01-08T12:36:26;3.99;86.30
68098;DHT22;54886;47.036;15.466;2023-01-08T12:39:01;4.09;85.52
68098;DHT22;54886;47.036;15.466;2023-01-08T12:41:27;4.14;85.20
68098;DHT22;54886;47.036;15.466;2023-01-08T12:44:06;4.14;84.96
68098;DHT22;54886;47.036;15.466;2023-01-08T12:46:38;4.25;84.92
68098;DHT22;54886;47.036;15.466;2023-01-08T12:49:06;4.25;84.73
68098;DHT22;54886;47.036;15.466;2023-01-08T12:51:37;4.31;84.59
68098;DHT22;54886;47.036;15.466;2023-01-08T12:54:15;4.41;83.48
68098;DHT22;54886;47.036;15.466;2023-01-08T13:04:57;4.52;83.90
68098;DHT22;54886;47.036;15.466;2023-01-08T13:07:27;4.55;84.31
68098;DHT22;54886;47.036;15.466;2023-01-08T13:10:07;4.58;84.06
68098;DHT22;54886;47.036;15.466;2023-01-08T13:12:36;4.62;83.90
68098;DHT22;54886;47.036;15.466;2023-01-08T13:15:02;4.65;84.32
68098;DHT22;54886;47.036;15.466;2023-01-08T13:17:28;4.66;84.42
68098;DHT22;54886;47.036;15.466;2023-01-08T13:19:59;4.69;84.31
68098;DHT22;54886;47.036;15.466;2023-01-08T13:22:30;4.69;83.98
68098;DHT22;54886;47.036;15.466;2023-01-08T13:25:26;4.71;84.09
68098;DHT22;54886;47.036;15.466;2023-01-08T13:27:52;4.69;83.86
68098;DHT22;54886;47.036;15.466;2023-01-08T13:30:37;4.65;83.66
68098;DHT22;54886;47.036;15.466;2023-01-08T13:33:26;4.68;83.78
68098;DHT22;54886;47.036;15.466;2023-01-08T13:38:36;4.69;83.53
68098;DHT22;54886;47.036;15.466;2023-01-08T13:41:02;4.71;83.44
68098;DHT22;54886;47.036;15.466;2023-01-08T13:43:30;4.69;83.34
68098;DHT22;54886;47.036;15.466;2023-01-08T13:48:31;4.71;83.54
68098;DHT22;54886;47.036;15.466;2023-01-08T13:50:58;4.71;83.86
68098;DHT22;54886;47.036;15.466;2023-01-08T13:53:24;4.72;83.70
68098;DHT22;54886;47.036;15.466;2023-01-08T13:56:06;4.73;83.54
68098;DHT22;54886;47.036;15.466;2023-01-08T13:58:36;4.73;83.42
68098;DHT22;54886;47.036;15.466;2023-01-08T14:01:03;4.73;83.23
68098;DHT22;54886;47.036;15.466;2023-01-08T14:03:37;4.76;83.09
68098;DHT22;54886;47.036;15.466;2023-01-08T14:06:07;4.75;83.22
68098;DHT22;54886;47.036;15.466;2023-01-08T14:08:33;4.75;83.47
68098;DHT22;54886;47.036;15.466;2023-01-08T14:10:58;4.75;83.10
68098;DHT22;54886;47.036;15.466;2023-01-08T14:13:29;4.76;83.16
68098;DHT22;54886;47.036;15.466;2023-01-08T14:16:01;4.77;83.33
68098;DHT22;54886;47.036;15.466;2023-01-08T14:18:27;4.76;83.18
68098;DHT22;54886;47.036;15.466;2023-01-08T14:20:53;4.77;83.27
68098;DHT22;54886;47.036;15.466;2023-01-08T14:23:23;4.80;83.26
68098;DHT22;54886;47.036;15.466;2023-01-08T14:25:50;4.79;82.94
68098;DHT22;54886;47.036;15.466;2023-01-08T14:28:18;4.77;82.80
68098;DHT22;54886;47.036;15.466;2023-01-08T14:30:52;4.76;82.79
68098;DHT22;54886;47.036;15.466;2023-01-08T14:33:21;4.79;82.80
68098;DHT22;54886;47.036;15.466;2023-01-08T14:35:49;4.79;82.88
68098;DHT22;54886;47.036;15.466;2023-01-08T14:38:16;4.82;83.07
68098;DHT22;54886;47.036;15.466;2023-01-08T14:41:16;4.80;82.90
68098;DHT22;54886;47.036;15.466;2023-01-08T14:43:45;4.76;82.94
68098;DHT22;54886;47.036;15.466;2023-01-08T14:46:19;4.76;83.00
68098;DHT22;54886;47.036;15.466;2023-01-08T14:48:46;4.75;82.87
68098;DHT22;54886;47.036;15.466;2023-01-08T14:51:14;4.73;83.06
68098;DHT22;54886;47.036;15.466;2023-01-08T14:53:48;4.72;83.21
68098;DHT22;54886;47.036;15.466;2023-01-08T14:56:18;4.75;83.34
68098;DHT22;54886;47.036;15.466;2023-01-08T14:58:45;4.76;83.14
68098;DHT22;54886;47.036;15.466;2023-01-08T15:01:19;4.76;83.08
68098;DHT22;54886;47.036;15.466;2023-01-08T15:03:48;4.76;83.07
68098;DHT22;54886;47.036;15.466;2023-01-08T15:06:28;4.76;82.90
68098;DHT22;54886;47.036;15.466;2023-01-08T15:08:54;4.75;83.10
68098;DHT22;54886;47.036;15.466;2023-01-08T15:11:25;4.73;83.11
68098;DHT22;54886;47.036;15.466;2023-01-08T15:13:52;4.75;82.86
68098;DHT22;54886;47.036;15.466;2023-01-08T15:21:35;4.71;83.14
68098;DHT22;54886;47.036;15.466;2023-01-08T15:24:02;4.71;83.04
68098;DHT22;54886;47.036;15.466;2023-01-08T15:26:29;4.73;83.15
68098;DHT22;54886;47.036;15.466;2023-01-08T15:29:01;4.72;83.07
68098;DHT22;54886;47.036;15.466;2023-01-08T15:31:32;4.72;82.98
68098;DHT22;54886;47.036;15.466;2023-01-08T15:33:58;4.71;83.09
68098;DHT22;54886;47.036;15.466;2023-01-08T15:36:24;4.71;83.29
68098;DHT22;54886;47.036;15.466;2023-01-08T15:38:50;4.69;83.12
68098;DHT22;54886;47.036;15.466;2023-01-08T15:41:21;4.69;83.11
68098;DHT22;54886;47.036;15.466;2023-01-08T15:44:07;4.69;83.25
68098;DHT22;54886;47.036;15.466;2023-01-08T15:46:32;4.68;83.17
68098;DHT22;54886;47.036;15.466;2023-01-08T15:48:58;4.66;83.32
68098;DHT22;54886;47.036;15.466;2023-01-08T15:51:24;4.64;83.25
68098;DHT22;54886;47.036;15.466;2023-01-08T15:53:50;4.68;83.22
68098;DHT22;54886;47.036;15.466;2023-01-08T15:56:15;4.66;83.32
68098;DHT22;54886;47.036;15.466;2023-01-08T15:58:40;4.68;83.36
68098;DHT22;54886;47.036;15.466;2023-01-08T16:01:07;4.65;83.30
68098;DHT22;54886;47.036;15.466;2023-01-08T16:03:32;4.65;83.33
68098;DHT22;54886;47.036;15.466;2023-01-08T16:05:57;4.65;83.19
68098;DHT22;54886;47.036;15.466;2023-01-08T16:08:23;4.64;83.25
68098;DHT22;54886;47.036;15.466;2023-01-08T16:10:52;4.64;83.34
68098;DHT22;54886;47.036;15.466;2023-01-08T16:13:17;4.65;83.26
68098;DHT22;54886;47.036;15.466;2023-01-08T16:15:43;4.61;83.44
68098;DHT22;54886;47.036;15.466;2023-01-08T16:18:08;4.62;83.44
68098;DHT22;54886;47.036;15.466;2023-01-08T16:20:34;4.58;83.54
68098;DHT22;54886;47.036;15.466;2023-01-08T16:22:59;4.59;83.56
68098;DHT22;54886;47.036;15.466;2023-01-08T16:25:25;4.58;83.53
68098;DHT22;54886;47.036;15.466;2023-01-08T16:27:51;4.58;83.50
68098;DHT22;54886;47.036;15.466;2023-01-08T16:30:20;4.58;83.68
68098;DHT22;54886;47.036;15.466;2023-01-08T16:32:52;4.57;83.53
68098;DHT22;54886;47.036;15.466;2023-01-08T16:35:19;4.55;83.64
68098;DHT22;54886;47.036;15.466;2023-01-08T16:37:45;4.55;83.62
68098;DHT22;54886;47.036;15.466;2023-01-08T16:40:11;4.54;83.59
68098;DHT22;54886;47.036;15.466;2023-01-08T16:42:37;4.54;83.48
68098;DHT22;54886;47.036;15.466;2023-01-08T16:45:03;4.52;83.30
68098;DHT22;54886;47.036;15.466;2023-01-08T16:47:29;4.51;83.58
68098;DHT22;54886;47.036;15.466;2023-01-08T16:49:54;4.49;83.42
68098;DHT22;54886;47.036;15.466;2023-01-08T16:52:20;4.49;83.74
68098;DHT22;54886;47.036;15.466;2023-01-08T16:54:46;4.49;83.71
68098;DHT22;54886;47.036;15.466;2023-01-08T16:57:12;4.47;83.83
68098;DHT22;54886;47.036;15.466;2023-01-08T16:59:37;4.48;83.81
68098;DHT22;54886;47.036;15.466;2023-01-08T17:02:03;4.48;83.77
68098;DHT22;54886;47.036;15.466;2023-01-08T17:04:28;4.47;83.65
68098;DHT22;54886;47.036;15.466;2023-01-08T17:06:54;4.47;83.70
68098;DHT22;54886;47.036;15.466;2023-01-08T17:09:19;4.47;83.76
68098;DHT22;54886;47.036;15.466;2023-01-08T17:11:45;4.45;83.85
68098;DHT22;54886;47.036;15.466;2023-01-08T17:14:12;4.45;83.84
68098;DHT22;54886;47.036;15.466;2023-01-08T17:16:37;4.44;83.74
68098;DHT22;54886;47.036;15.466;2023-01-08T17:19:03;4.41;83.88
68098;DHT22;54886;47.036;15.466;2023-01-08T17:21:29;4.41;83.90
68098;DHT22;54886;47.036;15.466;2023-01-08T17:23:54;4.44;83.96
68098;DHT22;54886;47.036;15.466;2023-01-08T17:26:20;4.42;83.98
68098;DHT22;54886;47.036;15.466;2023-01-08T17:28:45;4.47;84.26
68098;DHT22;54886;47.036;15.466;2023-01-08T17:31:15;4.48;84.08
68098;DHT22;54886;47.036;15.466;2023-01-08T17:33:42;4.48;84.13
68098;DHT22;54886;47.036;15.466;2023-01-08T17:36:13;4.49;84.19
68098;DHT22;54886;47.036;15.466;2023-01-08T17:38:39;4.51;84.20
68098;DHT22;54886;47.036;15.466;2023-01-08T17:41:05;4.54;84.17
68098;DHT22;54886;47.036;15.466;2023-01-08T17:43:33;4.51;84.08
68098;DHT22;54886;47.036;15.466;2023-01-08T17:46:06;4.51;84.21
68098;DHT22;54886;47.036;15.466;2023-01-08T17:48:32;4.51;84.21
68098;DHT22;54886;47.036;15.466;2023-01-08T17:50:58;4.49;84.17
68098;DHT22;54886;47.036;15.466;2023-01-08T17:53:26;4.49;84.13
68098;DHT22;54886;47.036;15.466;2023-01-08T17:55:52;4.48;84.04
68098;DHT22;54886;47.036;15.466;2023-01-08T17:58:19;4.48;83.90
68098;DHT22;54886;47.036;15.466;2023-01-08T18:00:44;4.49;84.53
68098;DHT22;54886;47.036;15.466;2023-01-08T18:03:10;4.47;84.12
68098;DHT22;54886;47.036;15.466;2023-01-08T18:05:35;4.44;84.02
68098;DHT22;54886;47.036;15.466;2023-01-08T18:08:01;4.45;84.15
68098;DHT22;54886;47.036;15.466;2023-01-08T18:10:26;4.44;84.06
68098;DHT22;54886;47.036;15.466;2023-01-08T18:12:51;4.42;84.08
68098;DHT22;54886;47.036;15.466;2023-01-08T18:15:17;4.40;84.16
68098;DHT22;54886;47.036;15.466;2023-01-08T18:17:42;4.38;84.11
68098;DHT22;54886;47.036;15.466;2023-01-08T18:20:08;4.37;84.23
68098;DHT22;54886;47.036;15.466;2023-01-08T18:22:34;4.37;84.18
68098;DHT22;54886;47.036;15.466;2023-01-08T18:24:59;4.37;84.04
68098;DHT22;54886;47.036;15.466;2023-01-08T18:27:25;4.34;83.99
68098;DHT22;54886;47.036;15.466;2023-01-08T18:29:50;4.33;83.65
68098;DHT22;54886;47.036;15.466;2023-01-08T18:32:16;4.30;83.67
68098;DHT22;54886;47.036;15.466;2023-01-08T18:34:46;4.28;83.81
68098;DHT22;54886;47.036;15.466;2023-01-08T18:37:12;4.25;83.84
68098;DHT22;54886;47.036;15.466;2023-01-08T18:39:37;4.25;84.00
68098;DHT22;54886;47.036;15.466;2023-01-08T18:42:03;4.24;83.93
68098;DHT22;54886;47.036;15.466;2023-01-08T18:44:47;4.21;83.83
68098;DHT22;54886;47.036;15.466;2023-01-08T18:47:16;4.21;83.80
68098;DHT22;54886;47.036;15.466;2023-01-08T18:49:42;4.18;83.78
68098;DHT22;54886;47.036;15.466;2023-01-08T18:52:07;4.20;83.87
68098;DHT22;54886;47.036;15.466;2023-01-08T18:54:35;4.17;83.81
68098;DHT22;54886;47.036;15.466;2023-01-08T18:57:00;4.16;83.92
68098;DHT22;54886;47.036;15.466;2023-01-08T18:59:25;4.16;83.87
68098;DHT22;54886;47.036;15.466;2023-01-08T19:01:51;4.16;83.91
68098;DHT22;54886;47.036;15.466;2023-01-08T19:04:16;4.17;84.21
68098;DHT22;54886;47.036;15.466;2023-01-08T19:06:45;4.14;84.20
68098;DHT22;54886;47.036;15.466;2023-01-08T19:09:10;4.13;84.14
68098;DHT22;54886;47.036;15.466;2023-01-08T19:11:36;4.11;83.99
68098;DHT22;54886;47.036;15.466;2023-01-08T19:14:01;4.11;83.99
68098;DHT22;54886;47.036;15.466;2023-01-08T19:16:26;4.10;83.99
68098;DHT22;54886;47.036;15.466;2023-01-08T19:18:52;4.07;83.96
68098;DHT22;54886;47.036;15.466;2023-01-08T19:21:17;4.09;84.04
68098;DHT22;54886;47.036;15.466;2023-01-08T19:23:47;4.07;84.10
68098;DHT22;54886;47.036;15.466;2023-01-08T19:26:12;4.10;84.18
68098;DHT22;54886;47.036;15.466;2023-01-08T19:28:39;4.06;84.20
68098;DHT22;54886;47.036;15.466;2023-01-08T19:31:05;4.03;83.51
68098;DHT22;54886;47.036;15.466;2023-01-08T19:33:32;4.02;83.56
68098;DHT22;54886;47.036;15.466;2023-01-08T19:36:02;4.00;83.44
68098;DHT22;54886;47.036;15.466;2023-01-08T19:38:32;3.96;83.88
68098;DHT22;54886;47.036;15.466;2023-01-08T19:40:58;3.94;84.25
68098;DHT22;54886;47.036;15.466;2023-01-08T19:43:24;4.00;84.32
68098;DHT22;54886;47.036;15.466;2023-01-08T19:46:08;4.00;83.95